createdAt,value
2023-03-31T00:01:53.004Z,88.07
2023-03-31T00:04:23.955Z,88.27
2023-03-31T00:06:53.998Z,88.53
2023-03-31T00:09:22.164Z,88.74
2023-03-31T00:11:49.833Z,88.63
2023-03-31T00:14:18.985Z,89.15
2023-03-31T00:16:45.877Z,89.20
2023-03-31T00:19:18.345Z,89.26
2023-03-31T00:21:46.001Z,89.47
2023-03-31T00:24:13.985Z,89.58
2023-03-31T00:26:40.512Z,89.83
2023-03-31T00:29:08.369Z,89.78
2023-03-31T00:31:36.045Z,89.87
2023-03-31T00:34:02.783Z,89.92
2023-03-31T00:36:29.816Z,90.05
2023-03-31T00:38:59.844Z,90.03
2023-03-31T00:41:27.722Z,90.46
2023-03-31T00:44:13.085Z,90.25
2023-03-31T00:47:07.065Z,90.28
2023-03-31T00:49:40.578Z,90.00
2023-03-31T00:52:19.546Z,90.11
2023-03-31T00:54:49.454Z,90.02
2023-03-31T00:57:16.514Z,90.11
2023-03-31T00:59:53.764Z,90.25
2023-03-31T01:02:25.584Z,89.93
2023-03-31T01:04:59.262Z,90.34
2023-03-31T01:07:35.657Z,90.23
2023-03-31T01:10:05.030Z,90.13
2023-03-31T01:12:34.256Z,90.26
2023-03-31T01:15:03.314Z,90.27
2023-03-31T01:17:30.799Z,90.42
2023-03-31T01:20:14.666Z,91.54
2023-03-31T01:23:03.098Z,91.79
2023-03-31T01:25:54.385Z,92.12
2023-03-31T01:28:31.798Z,92.41
2023-03-31T01:31:13.423Z,92.88
2023-03-31T01:34:03.151Z,93.09
2023-03-31T01:36:59.938Z,93.48
2023-03-31T01:39:29.776Z,93.59
2023-03-31T01:42:09.714Z,93.71
2023-03-31T01:44:45.990Z,93.79
2023-03-31T01:47:25.805Z,94.09
2023-03-31T01:50:02.472Z,94.39
2023-03-31T01:52:38.094Z,94.47
2023-03-31T01:55:48.204Z,94.62
2023-03-31T01:58:22.657Z,94.73
2023-03-31T02:00:56.891Z,94.77
2023-03-31T02:03:31.080Z,94.81
2023-03-31T02:06:01.701Z,95.03
2023-03-31T02:09:11.931Z,95.19
2023-03-31T02:11:41.717Z,95.30
2023-03-31T02:14:12.043Z,95.24
2023-03-31T02:16:47.944Z,95.41
2023-03-31T02:19:21.265Z,95.35
2023-03-31T02:21:49.862Z,95.44
2023-03-31T02:24:19.885Z,95.39
2023-03-31T02:26:54.973Z,95.38
2023-03-31T02:29:22.003Z,95.53
2023-03-31T02:32:17.476Z,95.45
2023-03-31T02:34:43.977Z,95.42
2023-03-31T02:37:11.093Z,95.07
2023-03-31T02:39:41.562Z,95.25
2023-03-31T02:42:09.042Z,95.32
2023-03-31T02:44:39.636Z,95.40
2023-03-31T02:47:10.028Z,95.32
2023-03-31T02:49:39.902Z,95.38
2023-03-31T02:52:12.863Z,95.39
2023-03-31T02:55:10.218Z,95.58
2023-03-31T02:57:55.345Z,95.37
2023-03-31T03:00:34.093Z,95.59
2023-03-31T03:03:12.898Z,95.57
2023-03-31T03:05:58.767Z,95.83
2023-03-31T03:08:46.667Z,95.77
2023-03-31T03:11:22.568Z,95.78
2023-03-31T03:14:09.179Z,95.84
2023-03-31T03:16:43.715Z,95.90
2023-03-31T03:19:17.739Z,95.84
2023-03-31T03:21:45.868Z,95.77
2023-03-31T03:24:12.441Z,95.90
2023-03-31T03:26:38.879Z,95.81
2023-03-31T03:29:05.438Z,95.98
2023-03-31T03:31:33.560Z,95.80
2023-03-31T03:34:01.065Z,95.76
2023-03-31T03:36:27.508Z,95.99
2023-03-31T03:38:53.936Z,95.86
2023-03-31T03:41:21.213Z,96.02
2023-03-31T03:43:47.744Z,96.22
2023-03-31T03:46:14.188Z,96.21
2023-03-31T03:48:40.819Z,96.16
2023-03-31T03:51:07.414Z,96.12
2023-03-31T03:53:33.864Z,96.23
2023-03-31T03:56:01.457Z,96.20
2023-03-31T03:58:27.881Z,96.36
2023-03-31T04:00:54.368Z,96.41
2023-03-31T04:03:20.826Z,96.49
2023-03-31T04:05:49.795Z,96.60
2023-03-31T04:08:17.237Z,96.42
2023-03-31T04:10:49.134Z,96.55
2023-03-31T04:13:16.852Z,96.77
2023-03-31T04:15:43.779Z,96.67
2023-03-31T04:18:18.505Z,96.91
2023-03-31T04:20:45.566Z,96.66
2023-03-31T04:23:14.775Z,96.72
2023-03-31T04:25:46.520Z,96.62
2023-03-31T04:28:14.527Z,96.70
2023-03-31T04:30:41.112Z,96.68
2023-03-31T04:33:07.838Z,96.59
2023-03-31T04:35:49.610Z,96.76
2023-03-31T04:38:18.753Z,96.68
2023-03-31T04:40:47.649Z,96.60
2023-03-31T04:43:14.909Z,96.75
2023-03-31T04:45:41.597Z,96.76
2023-03-31T04:48:08.566Z,96.75
2023-03-31T04:50:35.666Z,96.77
2023-03-31T04:53:03.200Z,96.89
2023-03-31T04:55:29.856Z,96.82
2023-03-31T04:57:56.804Z,96.83
2023-03-31T05:00:23.693Z,97.18
2023-03-31T05:02:50.405Z,97.24
2023-03-31T05:05:17.422Z,97.32
2023-03-31T05:07:44.070Z,97.24
2023-03-31T05:10:10.818Z,97.27
2023-03-31T05:12:38.065Z,97.11
2023-03-31T05:15:06.935Z,97.21
2023-03-31T05:17:35.484Z,97.42
2023-03-31T05:20:02.175Z,97.11
2023-03-31T05:22:28.563Z,97.49
2023-03-31T05:24:54.941Z,97.20
2023-03-31T05:27:21.927Z,97.43
2023-03-31T05:29:48.390Z,97.40
2023-03-31T05:32:14.809Z,97.24
2023-03-31T05:34:43.266Z,97.38
2023-03-31T05:37:09.714Z,97.19
2023-03-31T05:39:36.123Z,97.29
2023-03-31T05:42:03.322Z,97.46
2023-03-31T05:44:29.711Z,97.36
2023-03-31T05:46:56.370Z,97.42
2023-03-31T05:49:23.115Z,97.14
2023-03-31T05:51:50.404Z,97.44
2023-03-31T05:54:16.811Z,97.30
2023-03-31T05:56:43.894Z,97.30
2023-03-31T05:59:10.409Z,97.37
2023-03-31T06:01:36.984Z,97.60
2023-03-31T06:04:03.549Z,97.29
2023-03-31T06:06:30.103Z,97.36
2023-03-31T06:08:56.653Z,97.32
2023-03-31T06:11:23.186Z,97.20
2023-03-31T06:13:49.954Z,97.33
2023-03-31T06:16:17.620Z,97.28
2023-03-31T06:18:45.294Z,97.02
2023-03-31T06:21:13.978Z,96.92
2023-03-31T06:23:40.465Z,96.94
2023-03-31T06:26:08.608Z,96.88
2023-03-31T06:28:36.194Z,96.84
2023-03-31T06:31:04.766Z,96.54
2023-03-31T06:33:32.422Z,96.54
2023-03-31T06:36:01.555Z,96.36
2023-03-31T06:38:28.124Z,96.04
2023-03-31T06:40:54.578Z,96.03
2023-03-31T06:43:21.077Z,95.60
2023-03-31T06:45:48.527Z,95.53
2023-03-31T06:48:15.012Z,95.57
2023-03-31T06:50:42.418Z,95.54
2023-03-31T06:53:09.400Z,95.44
2023-03-31T06:55:36.705Z,95.34
2023-03-31T06:58:04.742Z,95.17
2023-03-31T07:00:32.762Z,95.16
2023-03-31T07:02:59.691Z,95.25
2023-03-31T07:05:29.432Z,95.13
2023-03-31T07:07:57.538Z,95.16
2023-03-31T07:10:26.273Z,94.88
2023-03-31T07:12:52.713Z,94.97
2023-03-31T07:15:19.171Z,94.87
2023-03-31T07:17:45.623Z,94.88
2023-03-31T07:20:16.160Z,94.95
2023-03-31T07:22:43.760Z,95.03
2023-03-31T07:25:11.593Z,94.72
2023-03-31T07:27:38.450Z,95.05
2023-03-31T07:30:10.434Z,95.02
2023-03-31T07:32:41.163Z,94.96
2023-03-31T07:35:09.278Z,95.20
2023-03-31T07:37:41.227Z,95.18
2023-03-31T07:40:10.117Z,95.40
2023-03-31T07:42:36.571Z,95.33
2023-03-31T07:45:06.027Z,95.34
2023-03-31T07:47:32.891Z,95.43
2023-03-31T07:49:59.528Z,95.45
2023-03-31T07:52:26.050Z,95.35
2023-03-31T07:54:52.580Z,95.40
2023-03-31T07:57:19.383Z,95.62
2023-03-31T07:59:47.509Z,95.61
2023-03-31T08:02:16.500Z,95.47
2023-03-31T08:04:44.478Z,95.43
2023-03-31T08:07:13.077Z,95.50
2023-03-31T08:09:41.038Z,95.37
2023-03-31T08:12:07.614Z,95.64
2023-03-31T08:14:40.479Z,95.60
2023-03-31T08:17:07.492Z,95.65
2023-03-31T08:19:34.039Z,95.93
2023-03-31T08:22:00.620Z,95.71
2023-03-31T08:24:27.022Z,95.64
2023-03-31T08:26:54.568Z,95.53
2023-03-31T08:29:21.149Z,95.62
2023-03-31T08:31:47.849Z,95.24
2023-03-31T08:34:14.337Z,95.27
2023-03-31T08:36:41.315Z,95.28
2023-03-31T08:39:08.072Z,95.08
2023-03-31T08:41:58.747Z,95.20
2023-03-31T08:44:46.371Z,95.16
2023-03-31T08:47:20.134Z,95.09
2023-03-31T08:49:55.353Z,95.04
2023-03-31T08:52:32.944Z,95.02
2023-03-31T08:55:04.190Z,94.85
2023-03-31T08:57:38.315Z,95.02
2023-03-31T09:00:08.049Z,94.72
2023-03-31T09:03:08.103Z,94.46
2023-03-31T09:05:34.563Z,94.26
2023-03-31T09:08:33.418Z,93.86
2023-03-31T09:11:10.788Z,93.65
2023-03-31T09:13:55.843Z,93.84
2023-03-31T09:16:32.949Z,93.95
2023-03-31T09:19:01.885Z,94.01
2023-03-31T09:21:40.006Z,93.75
2023-03-31T09:24:21.122Z,94.01
2023-03-31T09:27:07.472Z,93.92
2023-03-31T09:29:41.063Z,93.42
2023-03-31T09:32:16.812Z,93.38
2023-03-31T09:34:44.498Z,93.03
2023-03-31T09:37:12.172Z,92.97
2023-03-31T09:39:40.181Z,91.77
2023-03-31T09:42:07.462Z,90.80
2023-03-31T09:44:40.126Z,90.92
2023-03-31T09:47:12.470Z,90.18
2023-03-31T09:49:39.629Z,90.66
2023-03-31T09:52:23.779Z,90.81
2023-03-31T09:54:52.953Z,89.69
2023-03-31T09:57:33.554Z,90.59
2023-03-31T10:00:14.719Z,90.50
2023-03-31T10:02:45.886Z,89.49
2023-03-31T10:05:27.220Z,89.58
2023-03-31T10:08:18.006Z,89.65
2023-03-31T10:10:54.594Z,88.75
2023-03-31T10:13:25.473Z,88.60
2023-03-31T10:16:02.742Z,87.67
2023-03-31T10:18:38.424Z,85.70
2023-03-31T10:21:08.148Z,85.10
2023-03-31T10:23:36.400Z,85.93
2023-03-31T10:26:05.491Z,85.33
2023-03-31T10:28:35.317Z,83.40
2023-03-31T10:31:03.484Z,82.24
2023-03-31T10:33:35.127Z,81.93
2023-03-31T10:36:15.666Z,81.68
2023-03-31T10:38:47.881Z,83.28
2023-03-31T10:41:20.548Z,83.50
2023-03-31T10:43:58.688Z,81.53
2023-03-31T10:46:52.546Z,80.01
2023-03-31T10:49:22.060Z,79.80
2023-03-31T10:52:00.698Z,80.48
2023-03-31T10:54:27.522Z,81.18
2023-03-31T10:57:05.570Z,81.35
2023-03-31T10:59:52.099Z,81.00
2023-03-31T11:02:42.889Z,81.51
2023-03-31T11:05:22.586Z,81.96
2023-03-31T11:08:10.418Z,82.07
2023-03-31T11:11:00.804Z,83.03
2023-03-31T11:14:02.209Z,83.32
2023-03-31T11:16:34.389Z,83.02
2023-03-31T11:19:29.386Z,83.85
2023-03-31T11:22:05.430Z,84.71
2023-03-31T11:24:50.791Z,83.87
2023-03-31T11:27:17.144Z,83.39
2023-03-31T11:29:51.418Z,82.75
2023-03-31T11:32:33.814Z,83.22
2023-03-31T11:35:19.062Z,84.10
2023-03-31T11:38:36.760Z,83.75
2023-03-31T11:41:09.540Z,83.39
2023-03-31T11:43:52.927Z,82.24
2023-03-31T11:46:23.892Z,81.79
2023-03-31T11:48:59.768Z,82.08
2023-03-31T11:51:55.698Z,83.20
2023-03-31T11:54:33.278Z,84.68
2023-03-31T11:57:07.043Z,85.68
2023-03-31T11:59:34.513Z,86.33
2023-03-31T12:02:07.090Z,86.72
2023-03-31T12:04:44.645Z,87.01
2023-03-31T12:07:28.687Z,87.44
2023-03-31T12:10:06.024Z,87.68
2023-03-31T12:12:42.155Z,88.22
2023-03-31T12:15:22.355Z,88.26
2023-03-31T12:18:00.832Z,88.57
2023-03-31T12:20:58.206Z,88.83
2023-03-31T12:23:29.410Z,88.99
2023-03-31T12:26:08.159Z,88.63
2023-03-31T12:28:37.696Z,88.64
2023-03-31T12:31:07.536Z,88.97
2023-03-31T12:33:40.949Z,89.16
2023-03-31T12:36:25.344Z,89.32
2023-03-31T12:39:19.172Z,89.40
2023-03-31T12:42:24.699Z,88.90
2023-03-31T12:45:18.878Z,89.35
2023-03-31T12:48:13.890Z,89.38
2023-03-31T12:50:49.418Z,89.35
2023-03-31T12:53:43.741Z,90.08
2023-03-31T12:56:10.219Z,90.23
2023-03-31T12:58:40.007Z,90.34
2023-03-31T13:01:17.182Z,90.06
2023-03-31T13:03:49.427Z,90.28
2023-03-31T13:06:28.089Z,89.76
2023-03-31T13:08:57.054Z,89.89
2023-03-31T13:11:38.546Z,89.90
2023-03-31T13:14:17.340Z,89.61
2023-03-31T13:16:43.962Z,89.05
2023-03-31T13:19:13.378Z,89.06
2023-03-31T13:22:01.522Z,88.50
2023-03-31T13:24:30.042Z,88.26
2023-03-31T13:26:59.414Z,88.62
2023-03-31T13:29:41.000Z,88.56
2023-03-31T13:32:18.549Z,88.69
2023-03-31T13:35:05.684Z,89.08
2023-03-31T13:37:50.334Z,88.81
2023-03-31T13:40:49.861Z,88.94
2023-03-31T13:43:34.988Z,89.12
2023-03-31T13:46:16.942Z,88.91
2023-03-31T13:49:21.666Z,88.67
2023-03-31T13:52:03.936Z,88.59
2023-03-31T13:55:01.981Z,88.26
2023-03-31T13:57:56.320Z,88.96
2023-03-31T14:00:36.330Z,89.09
2023-03-31T14:03:19.128Z,89.08
2023-03-31T14:05:53.969Z,89.75
2023-03-31T14:08:31.301Z,90.09
2023-03-31T14:11:26.237Z,89.74
2023-03-31T14:14:03.412Z,89.97
2023-03-31T14:16:33.566Z,90.12
2023-03-31T14:19:28.400Z,90.36
2023-03-31T14:22:32.566Z,90.17
2023-03-31T14:25:16.310Z,90.12
2023-03-31T14:28:05.082Z,90.25
2023-03-31T14:30:53.458Z,89.72
2023-03-31T14:33:41.526Z,89.60
2023-03-31T14:36:29.432Z,89.34
2023-03-31T14:39:03.362Z,89.47
2023-03-31T14:41:30.044Z,88.96
2023-03-31T14:44:01.665Z,88.89
2023-03-31T14:46:34.770Z,88.77
2023-03-31T14:49:06.996Z,88.84
2023-03-31T14:51:33.484Z,89.08
2023-03-31T14:54:01.903Z,89.53
2023-03-31T14:56:37.450Z,89.96
2023-03-31T14:59:06.301Z,89.87
2023-03-31T15:01:37.677Z,89.33
2023-03-31T15:04:09.549Z,89.33
2023-03-31T15:06:39.016Z,89.55
2023-03-31T15:09:06.101Z,88.92
2023-03-31T15:11:32.962Z,88.62
2023-03-31T15:14:05.669Z,88.48
2023-03-31T15:16:41.753Z,88.50
2023-03-31T15:19:16.240Z,88.07
2023-03-31T15:21:43.933Z,87.59
2023-03-31T15:24:13.853Z,87.60
2023-03-31T15:26:58.975Z,88.02
2023-03-31T15:29:42.975Z,88.66
2023-03-31T15:32:22.735Z,88.72
2023-03-31T15:34:51.307Z,88.41
2023-03-31T15:37:24.619Z,88.21
2023-03-31T15:39:51.194Z,88.43
2023-03-31T15:42:18.442Z,88.88
2023-03-31T15:44:46.792Z,89.18
2023-03-31T15:47:18.268Z,89.32
2023-03-31T15:49:51.206Z,89.33
2023-03-31T15:52:35.425Z,89.61
2023-03-31T15:55:22.568Z,89.83
2023-03-31T15:57:50.822Z,89.86
2023-03-31T16:00:43.194Z,90.14
2023-03-31T16:03:16.987Z,90.27
2023-03-31T16:05:58.928Z,90.45
2023-03-31T16:08:31.426Z,90.38
2023-03-31T16:11:04.986Z,90.46
2023-03-31T16:13:32.616Z,90.53
2023-03-31T16:15:59.568Z,90.46
2023-03-31T16:18:35.975Z,90.75
2023-03-31T16:21:05.366Z,90.43
2023-03-31T16:23:35.768Z,90.48
2023-03-31T16:26:02.580Z,91.17
2023-03-31T16:28:32.881Z,91.04
2023-03-31T16:31:02.376Z,90.88
2023-03-31T16:33:31.358Z,91.28
2023-03-31T16:36:01.543Z,91.62
2023-03-31T16:38:29.860Z,91.82
2023-03-31T16:40:58.135Z,91.83
2023-03-31T16:43:26.369Z,91.98
2023-03-31T16:45:55.430Z,92.33
2023-03-31T16:48:24.321Z,92.25
2023-03-31T16:50:54.105Z,92.49
2023-03-31T16:53:23.187Z,92.47
2023-03-31T16:55:49.872Z,92.76
2023-03-31T16:58:17.774Z,92.88
2023-03-31T17:00:45.611Z,93.25
2023-03-31T17:03:13.924Z,93.24
2023-03-31T17:05:46.685Z,93.10
2023-03-31T17:08:14.619Z,93.49
2023-03-31T17:10:41.853Z,93.80
2023-03-31T17:13:09.384Z,93.58
2023-03-31T17:15:39.945Z,93.73
2023-03-31T17:18:07.294Z,93.74
2023-03-31T17:20:34.314Z,93.97
2023-03-31T17:23:01.632Z,94.14
2023-03-31T17:25:28.452Z,94.31
2023-03-31T17:28:00.652Z,94.39
2023-03-31T17:30:28.018Z,94.20
2023-03-31T17:32:54.465Z,94.34
2023-03-31T17:35:21.718Z,94.20
2023-03-31T17:37:53.805Z,94.19
2023-03-31T17:40:21.741Z,94.23
2023-03-31T17:42:48.273Z,94.44
2023-03-31T17:45:15.122Z,94.40
2023-03-31T17:47:42.668Z,94.42
2023-03-31T17:50:09.759Z,94.63
2023-03-31T17:52:36.554Z,94.25
2023-03-31T17:55:04.414Z,94.53
2023-03-31T17:57:31.798Z,94.78
2023-03-31T17:59:58.797Z,94.69
2023-03-31T18:02:25.546Z,94.69
2023-03-31T18:04:52.424Z,94.94
2023-03-31T18:07:18.947Z,95.03
2023-03-31T18:09:45.472Z,95.24
2023-03-31T18:12:11.862Z,95.16
2023-03-31T18:14:38.323Z,95.26
2023-03-31T18:17:05.038Z,95.12
2023-03-31T18:19:31.919Z,95.26
2023-03-31T18:21:58.303Z,95.31
2023-03-31T18:24:24.742Z,95.37
2023-03-31T18:26:51.542Z,95.43
2023-03-31T18:29:17.974Z,95.26
2023-03-31T18:31:44.473Z,95.29
2023-03-31T18:34:13.335Z,95.43
2023-03-31T18:36:40.023Z,95.46
2023-03-31T18:39:06.617Z,95.43
2023-03-31T18:41:33.071Z,95.44
2023-03-31T18:44:00.723Z,95.31
2023-03-31T18:46:27.208Z,95.41
2023-03-31T18:48:53.625Z,95.33
2023-03-31T18:51:20.144Z,95.32
2023-03-31T18:53:46.683Z,95.37
2023-03-31T18:56:13.211Z,95.61
2023-03-31T18:58:39.691Z,95.53
2023-03-31T19:01:06.266Z,95.48
2023-03-31T19:03:32.845Z,95.58
2023-03-31T19:06:05.168Z,95.32
2023-03-31T19:08:32.368Z,95.59
2023-03-31T19:11:16.881Z,95.63
2023-03-31T19:13:44.324Z,95.59
2023-03-31T19:16:14.345Z,95.69
2023-03-31T19:18:41.056Z,95.69
2023-03-31T19:21:07.750Z,95.88
2023-03-31T19:23:34.776Z,95.89
2023-03-31T19:26:04.107Z,95.64
2023-03-31T19:28:31.506Z,95.96
2023-03-31T19:31:04.218Z,96.06
2023-03-31T19:33:30.780Z,95.92
2023-03-31T19:35:57.781Z,95.88
2023-03-31T19:38:26.949Z,96.05
2023-03-31T19:40:53.500Z,96.13
2023-03-31T19:43:23.071Z,96.08
2023-03-31T19:45:53.175Z,96.22
2023-03-31T19:48:20.765Z,96.21
2023-03-31T19:50:51.271Z,96.21
2023-03-31T19:53:17.972Z,96.26
2023-03-31T19:55:44.482Z,96.11
2023-03-31T19:58:11.135Z,96.33
2023-03-31T20:00:39.153Z,96.42
2023-03-31T20:03:06.143Z,96.37
2023-03-31T20:05:33.416Z,96.35
2023-03-31T20:07:59.862Z,96.28
2023-03-31T20:10:26.401Z,96.26
2023-03-31T20:12:52.834Z,96.35
2023-03-31T20:15:19.311Z,96.41
2023-03-31T20:17:46.666Z,96.39
2023-03-31T20:20:13.369Z,96.29
2023-03-31T20:22:41.251Z,96.47
2023-03-31T20:25:08.227Z,96.27
2023-03-31T20:27:34.761Z,96.50
2023-03-31T20:30:01.639Z,96.49
2023-03-31T20:32:28.068Z,96.63
2023-03-31T20:34:54.681Z,96.49
2023-03-31T20:37:21.153Z,96.55
2023-03-31T20:39:48.467Z,96.56
2023-03-31T20:42:14.891Z,96.54
2023-03-31T20:44:41.753Z,96.60
2023-03-31T20:47:09.235Z,96.74
2023-03-31T20:49:35.741Z,96.56
2023-03-31T20:52:02.509Z,96.70
2023-03-31T20:54:28.885Z,96.86
2023-03-31T20:56:55.373Z,96.77
2023-03-31T20:59:22.197Z,96.85
2023-03-31T21:01:49.604Z,96.98
2023-03-31T21:04:17.030Z,96.94
2023-03-31T21:06:46.469Z,96.92
2023-03-31T21:09:14.614Z,96.99
2023-03-31T21:11:41.555Z,97.14
2023-03-31T21:14:12.648Z,97.05
2023-03-31T21:16:40.089Z,97.12
2023-03-31T21:19:06.598Z,97.07
2023-03-31T21:21:35.173Z,97.17
2023-03-31T21:24:01.949Z,97.27
2023-03-31T21:26:28.713Z,97.18
2023-03-31T21:28:55.588Z,97.02
2023-03-31T21:31:24.516Z,97.30
2023-03-31T21:33:52.659Z,97.27
2023-03-31T21:36:23.780Z,97.31
2023-03-31T21:38:52.864Z,97.40
2023-03-31T21:41:22.763Z,97.41
2023-03-31T21:43:50.869Z,97.49
2023-03-31T21:46:20.690Z,97.44
2023-03-31T21:48:48.074Z,97.22
2023-03-31T21:51:14.823Z,97.39
2023-03-31T21:53:41.402Z,97.58
2023-03-31T21:56:07.907Z,97.70
2023-03-31T21:58:34.478Z,97.59
2023-03-31T22:01:03.955Z,97.74
2023-03-31T22:03:34.268Z,97.80
2023-03-31T22:06:09.540Z,97.69
2023-03-31T22:08:37.875Z,97.64
2023-03-31T22:11:06.808Z,97.64
2023-03-31T22:13:33.556Z,97.80
2023-03-31T22:16:01.880Z,97.84
2023-03-31T22:18:29.684Z,97.75
2023-03-31T22:20:57.022Z,97.88
2023-03-31T22:23:23.572Z,97.68
2023-03-31T22:25:49.970Z,97.89
2023-03-31T22:28:17.008Z,97.96
2023-03-31T22:30:44.044Z,98.07
2023-03-31T22:33:10.557Z,98.05
2023-03-31T22:35:37.275Z,97.97
2023-03-31T22:38:05.074Z,97.92
2023-03-31T22:40:32.774Z,97.91
2023-03-31T22:43:00.867Z,97.92
2023-03-31T22:45:27.310Z,98.01
2023-03-31T22:47:53.863Z,98.00
2023-03-31T22:50:20.411Z,98.01
2023-03-31T22:52:46.952Z,98.06
2023-03-31T22:55:13.450Z,98.09
2023-03-31T22:57:40.147Z,98.04
2023-03-31T23:00:07.567Z,98.13
2023-03-31T23:02:34.023Z,98.11
2023-03-31T23:05:00.688Z,98.11
2023-03-31T23:07:27.993Z,98.08
2023-03-31T23:09:54.403Z,97.99
2023-03-31T23:12:20.854Z,98.28
2023-03-31T23:14:47.657Z,98.06
2023-03-31T23:17:14.243Z,98.11
2023-03-31T23:19:40.775Z,98.08
2023-03-31T23:22:07.169Z,98.20
2023-03-31T23:24:33.537Z,98.12
2023-03-31T23:26:59.930Z,98.25
2023-03-31T23:29:27.364Z,98.19
2023-03-31T23:31:54.009Z,98.13
2023-03-31T23:34:20.457Z,98.27
2023-03-31T23:36:46.908Z,98.35
2023-03-31T23:39:13.491Z,98.40
2023-03-31T23:41:39.905Z,98.37
2023-03-31T23:44:06.846Z,98.30
2023-03-31T23:46:33.686Z,98.26
2023-03-31T23:49:02.571Z,98.38
2023-03-31T23:51:28.999Z,98.51
2023-03-31T23:53:55.647Z,98.43
2023-03-31T23:56:22.251Z,98.38
2023-03-31T23:58:48.773Z,98.32
